createdAt,value
2018-11-22T12:16:32.040Z,4.00
2018-11-22T12:18:59.298Z,4.00
2018-11-22T12:21:26.568Z,4.00
2018-11-22T12:23:53.850Z,3.90
2018-11-22T12:26:21.102Z,3.90
2018-11-22T12:28:48.435Z,4.10
2018-11-22T12:31:15.745Z,4.10
2018-11-22T12:33:47.590Z,4.10
2018-11-22T12:36:20.486Z,4.20
2018-11-22T12:38:47.738Z,4.30
2018-11-22T12:41:15.042Z,4.30
2018-11-22T12:43:42.564Z,4.20
2018-11-22T12:46:09.845Z,4.30
2018-11-22T12:48:37.097Z,4.30
2018-11-22T12:51:04.442Z,4.50
2018-11-22T12:53:31.681Z,4.50
2018-11-22T12:55:58.969Z,4.60
2018-11-22T12:58:26.864Z,4.70
2018-11-22T13:00:54.181Z,4.80
2018-11-22T13:03:21.418Z,4.70
2018-11-22T13:05:48.698Z,4.70
2018-11-22T13:08:15.966Z,4.70
2018-11-22T13:10:43.338Z,4.50
2018-11-22T13:13:10.730Z,4.30
2018-11-22T13:15:37.994Z,4.10
2018-11-22T13:18:05.294Z,3.90
2018-11-22T13:20:32.590Z,3.90
2018-11-22T13:22:59.848Z,3.90
2018-11-22T13:25:27.109Z,3.80
2018-11-22T13:27:54.365Z,3.90
2018-11-22T13:30:24.154Z,4.00
2018-11-22T13:32:52.905Z,4.10
2018-11-22T13:35:20.365Z,4.30
2018-11-22T13:37:48.862Z,4.30
2018-11-22T13:40:16.198Z,4.20
2018-11-22T13:42:44.138Z,4.20
2018-11-22T13:45:13.475Z,4.30
2018-11-22T13:47:41.857Z,4.30
2018-11-22T13:50:11.070Z,4.30
2018-11-22T13:52:38.338Z,4.40
2018-11-22T13:55:05.626Z,4.30
2018-11-22T13:57:32.985Z,4.40
2018-11-22T14:00:00.392Z,4.50
2018-11-22T14:02:28.537Z,4.40
2018-11-22T14:04:55.909Z,4.40
2018-11-22T14:07:23.195Z,4.40
2018-11-22T14:09:50.522Z,4.50
2018-11-22T14:12:17.802Z,4.40
2018-11-22T14:14:45.123Z,4.40
2018-11-22T14:17:12.385Z,4.40
2018-11-22T14:19:39.705Z,4.40
2018-11-22T14:22:06.954Z,4.40
2018-11-22T14:24:34.221Z,4.40
2018-11-22T14:27:01.552Z,4.40
2018-11-22T14:29:28.797Z,4.30
2018-11-22T14:31:56.094Z,4.30
2018-11-22T14:34:23.382Z,4.30
2018-11-22T14:36:50.685Z,4.30
2018-11-22T14:39:18.019Z,4.40
2018-11-22T14:41:48.394Z,4.40
2018-11-22T14:44:15.984Z,4.30
2018-11-22T14:46:43.229Z,4.30
2018-11-22T14:49:10.477Z,4.30
2018-11-22T14:51:41.587Z,4.20
2018-11-22T14:54:08.914Z,4.20
2018-11-22T14:56:36.284Z,4.20
2018-11-22T14:59:03.553Z,4.10
2018-11-22T15:01:30.897Z,4.20
2018-11-22T15:03:58.161Z,4.10
2018-11-22T15:06:25.394Z,4.10
2018-11-22T15:08:52.658Z,4.10
2018-11-22T15:11:20.057Z,4.10
2018-11-22T15:13:47.317Z,4.00
2018-11-22T15:16:15.429Z,4.00
2018-11-22T15:18:42.891Z,4.00
2018-11-22T15:21:10.570Z,3.90
2018-11-22T15:23:37.868Z,3.80
2018-11-22T15:26:05.278Z,3.80
2018-11-22T15:28:32.617Z,3.70
2018-11-22T15:30:59.979Z,3.70
2018-11-22T15:33:27.273Z,3.60
2018-11-22T15:35:55.098Z,3.50
2018-11-22T15:38:22.373Z,3.50
2018-11-22T15:40:49.653Z,3.40
2018-11-22T15:43:16.898Z,3.40
2018-11-22T15:45:44.187Z,3.30
2018-11-22T15:48:11.451Z,3.20
2018-11-22T15:50:38.777Z,3.20
2018-11-22T15:53:06.033Z,3.10
2018-11-22T15:55:33.290Z,3.00
2018-11-22T15:58:00.761Z,3.00
2018-11-22T16:00:30.383Z,2.90
2018-11-22T16:02:58.146Z,2.80
2018-11-22T16:05:26.118Z,2.90
2018-11-22T16:07:53.398Z,2.90
2018-11-22T16:10:26.808Z,2.90
2018-11-22T16:12:54.829Z,2.80
2018-11-22T16:15:25.994Z,2.60
2018-11-22T16:17:53.293Z,2.50
2018-11-22T16:20:20.557Z,2.60
2018-11-22T16:22:47.813Z,2.70
2018-11-22T16:25:15.073Z,2.80
2018-11-22T16:27:42.329Z,2.90
2018-11-22T16:30:13.070Z,2.90
2018-11-22T16:32:40.445Z,2.90
2018-11-22T16:35:09.354Z,2.90
2018-11-22T16:37:36.804Z,2.90
2018-11-22T16:40:05.052Z,2.90
2018-11-22T16:42:32.377Z,2.70
2018-11-22T16:44:59.622Z,2.70
2018-11-22T16:47:26.893Z,2.80
2018-11-22T16:49:54.178Z,2.90
2018-11-22T16:52:21.453Z,3.00
2018-11-22T16:54:48.708Z,3.00
2018-11-22T16:57:15.957Z,3.00
2018-11-22T16:59:43.218Z,2.70
2018-11-22T17:02:10.538Z,2.60
2018-11-22T17:04:37.782Z,2.50
2018-11-22T17:07:05.173Z,2.30
2018-11-22T17:09:32.461Z,2.30
2018-11-22T17:11:59.722Z,2.50
2018-11-22T17:14:27.035Z,2.60
2018-11-22T17:16:54.333Z,2.80
2018-11-22T17:19:21.613Z,2.90
2018-11-22T17:21:48.861Z,3.00
2018-11-22T17:24:16.201Z,2.90
2018-11-22T17:26:43.533Z,2.90
2018-11-22T17:29:10.847Z,2.90
2018-11-22T17:31:38.118Z,2.90
2018-11-22T17:34:05.634Z,2.90
2018-11-22T17:36:32.875Z,2.90
2018-11-22T17:39:00.121Z,2.80
2018-11-22T17:41:27.389Z,2.70
2018-11-22T17:43:54.639Z,2.70
2018-11-22T17:46:21.895Z,2.60
2018-11-22T17:48:49.138Z,2.50
2018-11-22T17:51:16.397Z,2.40
2018-11-22T17:53:43.649Z,2.30
2018-11-22T17:56:10.969Z,2.20
2018-11-22T17:58:38.317Z,1.90
2018-11-22T18:01:05.718Z,1.80
2018-11-22T18:03:33.253Z,1.90
2018-11-22T18:06:00.542Z,1.90
2018-11-22T18:08:27.897Z,1.80
2018-11-22T18:10:55.300Z,1.70
2018-11-22T18:13:22.766Z,1.80
2018-11-22T18:15:55.889Z,2.00
2018-11-22T18:18:23.448Z,2.10
2018-11-22T18:20:50.714Z,2.00
2018-11-22T18:23:18.014Z,2.00
2018-11-22T18:25:48.866Z,2.10
2018-11-22T18:28:12.552Z,2.10
2018-11-22T18:30:39.810Z,2.00
2018-11-22T18:33:07.881Z,2.00
2018-11-22T18:35:35.229Z,2.10
2018-11-22T18:38:02.694Z,2.10
2018-11-22T18:40:31.291Z,2.10
2018-11-22T18:42:59.672Z,2.10
2018-11-22T18:45:31.110Z,2.00
2018-11-22T18:47:59.122Z,2.00
2018-11-22T18:50:27.442Z,2.00
2018-11-22T18:52:54.703Z,2.00
2018-11-22T18:55:22.157Z,1.90
2018-11-22T18:57:49.526Z,1.90
2018-11-22T19:00:19.518Z,1.90
2018-11-22T19:02:46.785Z,1.90
2018-11-22T19:05:14.750Z,1.90
2018-11-22T19:07:43.423Z,1.80
2018-11-22T19:10:12.990Z,1.80
2018-11-22T19:12:40.517Z,1.80
2018-11-22T19:15:09.482Z,1.70
2018-11-22T19:17:37.985Z,1.70
2018-11-22T19:20:09.178Z,1.70
2018-11-22T19:22:35.429Z,1.70
2018-11-22T19:25:02.849Z,1.60
2018-11-22T19:27:30.065Z,1.40
2018-11-22T19:29:57.335Z,1.40
2018-11-22T19:32:24.629Z,1.50
2018-11-22T19:34:52.005Z,1.60
2018-11-22T19:37:19.265Z,1.50
2018-11-22T19:39:46.526Z,1.60
2018-11-22T19:42:13.801Z,1.50
2018-11-22T19:44:41.037Z,1.40
2018-11-22T19:47:08.297Z,1.40
2018-11-22T19:49:35.549Z,1.40
2018-11-22T19:52:02.853Z,1.40
2018-11-22T19:54:30.182Z,1.30
2018-11-22T19:56:57.429Z,1.40
2018-11-22T19:59:24.781Z,1.40
2018-11-22T20:01:52.069Z,1.50
2018-11-22T20:04:19.442Z,1.30
2018-11-22T20:06:46.826Z,1.30
2018-11-22T20:09:14.061Z,1.30
2018-11-22T20:11:41.346Z,1.20
2018-11-22T20:14:08.642Z,1.10
2018-11-22T20:16:36.029Z,1.10
2018-11-22T20:19:03.478Z,0.90
2018-11-22T20:21:30.725Z,0.80
2018-11-22T20:23:57.991Z,0.90
2018-11-22T20:26:25.254Z,0.90
2018-11-22T20:28:52.549Z,0.90
2018-11-22T20:31:19.802Z,1.00
2018-11-22T20:33:47.281Z,0.90
2018-11-22T20:36:14.571Z,0.80
2018-11-22T20:38:41.825Z,0.70
2018-11-22T20:41:09.092Z,0.50
2018-11-22T20:43:36.498Z,0.60
2018-11-22T20:46:03.931Z,0.60
2018-11-22T20:48:31.237Z,0.60
2018-11-22T20:50:58.484Z,0.80
2018-11-22T20:53:25.793Z,0.90
2018-11-22T20:55:53.089Z,0.90
2018-11-22T20:58:20.379Z,0.50
2018-11-22T21:00:47.673Z,0.30
2018-11-22T21:03:15.025Z,0.30
2018-11-22T21:05:42.289Z,0.20
2018-11-22T21:08:09.583Z,0.30
2018-11-22T21:10:36.861Z,0.50
2018-11-22T21:13:04.338Z,0.60
2018-11-22T21:15:32.613Z,0.70
2018-11-22T21:18:02.221Z,0.70
2018-11-22T21:20:33.754Z,0.60
2018-11-22T21:23:01.145Z,0.50
2018-11-22T21:25:28.548Z,0.50
2018-11-22T21:27:55.878Z,0.40
2018-11-22T21:30:29.057Z,0.30
2018-11-22T21:32:57.021Z,0.30
2018-11-22T21:35:24.457Z,0.40
2018-11-22T21:37:53.982Z,0.40
2018-11-22T21:40:21.861Z,0.40
2018-11-22T21:42:49.149Z,0.40
2018-11-22T21:45:17.781Z,0.40
2018-11-22T21:47:45.025Z,0.30
2018-11-22T21:50:13.585Z,0.40
2018-11-22T21:52:40.881Z,0.40
2018-11-22T21:55:11.600Z,0.30
2018-11-22T21:57:39.825Z,0.30
2018-11-22T22:00:15.062Z,0.30
2018-11-22T22:02:42.494Z,0.20
2018-11-22T22:05:10.022Z,0.20
2018-11-22T22:07:37.485Z,0.10
2018-11-22T22:10:04.954Z,0.10
2018-11-22T22:12:32.458Z,0.10
2018-11-22T22:15:00.658Z,0.40
2018-11-22T22:17:28.001Z,0.70
2018-11-22T22:19:55.531Z,0.90
2018-11-22T22:22:22.800Z,0.90
2018-11-22T22:24:50.075Z,0.90
2018-11-22T22:27:17.422Z,0.90
2018-11-22T22:29:44.669Z,1.00
2018-11-22T22:32:11.946Z,1.00
2018-11-22T22:34:39.178Z,1.10
2018-11-22T22:37:06.458Z,0.90
2018-11-22T22:39:33.705Z,0.90
2018-11-22T22:42:01.010Z,1.00
2018-11-22T22:44:28.253Z,1.00
2018-11-22T22:46:55.505Z,1.00
2018-11-22T22:49:22.778Z,0.90
2018-11-22T22:51:50.286Z,0.90
2018-11-22T22:54:17.591Z,0.90
2018-11-22T22:56:44.843Z,0.70
2018-11-22T22:59:12.130Z,0.70
2018-11-22T23:01:39.407Z,0.70
2018-11-22T23:04:06.784Z,0.70
2018-11-22T23:06:34.146Z,0.70
2018-11-22T23:09:01.451Z,0.80
2018-11-22T23:11:29.530Z,0.80
2018-11-22T23:13:57.293Z,0.80
2018-11-22T23:16:24.656Z,0.80
2018-11-22T23:18:51.950Z,0.80
2018-11-22T23:21:19.269Z,0.70
2018-11-22T23:23:46.602Z,0.70
2018-11-22T23:26:13.914Z,0.70
2018-11-22T23:28:41.230Z,0.60
2018-11-22T23:31:08.600Z,0.50
2018-11-22T23:33:35.887Z,0.20
2018-11-22T23:36:03.205Z,0.10
2018-11-22T23:38:30.443Z,0.10
2018-11-22T23:40:57.755Z,0.10
2018-11-22T23:43:25.018Z,0.20
2018-11-22T23:45:52.322Z,0.20
2018-11-22T23:48:19.591Z,0.10
2018-11-22T23:50:46.830Z,0.00
2018-11-22T23:53:14.159Z,0.00
2018-11-22T23:55:41.412Z,0.00
2018-11-22T23:58:08.669Z,0.00
